Time;durP1;ratioP1;P1;durP2;ratioP2;P2;SDS_P1;SDS_P2;PMS_P1;PMS_P2;Temp;Humidity;BMP_temperature;BMP_pressure;BME280_temperature;BME280_humidity;BME280_pressure;Samples;Min_cycle;Max_cycle;Signal;HPM_P1;HPM_P2
2021/12/10 00:00:08;;;;;;;7.57;4.00;;;;;;;-11.53;57.11;101419.97;4894508;29;20055;-76
2021/12/10 00:02:35;;;;;;;11.67;4.13;;;;;;;-11.56;57.19;101417.13;4894716;29;20396;-78
2021/12/10 00:05:04;;;;;;;10.07;4.47;;;;;;;-11.51;57.40;101421.00;4894655;29;20059;-77
2021/12/10 00:07:30;;;;;;;8.17;4.00;;;;;;;-11.68;56.50;101404.16;4894253;29;20049;-77
2021/12/10 00:10:06;;;;;;;9.67;4.00;;;;;;;-11.65;57.52;101415.41;4878701;29;20195;-76
2021/12/10 00:12:43;;;;;;;7.67;4.00;;;;;;;-11.58;57.73;101431.13;4867791;29;20052;-78
2021/12/10 00:15:10;;;;;;;11.40;4.77;;;;;;;-11.71;57.31;101404.72;4901552;29;20040;-75
2021/12/10 00:17:36;;;;;;;11.43;4.73;;;;;;;-11.68;57.04;101412.56;4899579;29;20048;-77
2021/12/10 00:20:05;;;;;;;8.57;4.03;;;;;;;-11.56;57.74;101433.06;4900220;29;20076;-77
2021/12/10 00:22:39;;;;;;;9.67;4.20;;;;;;;-11.54;57.61;101431.63;4896259;29;20044;-76
2021/12/10 00:25:08;;;;;;;10.47;4.60;;;;;;;-11.68;57.22;101415.06;4878773;29;20084;-76
2021/12/10 00:27:34;;;;;;;14.57;4.20;;;;;;;-11.61;57.53;101419.16;4895658;29;20048;-76
2021/12/10 00:30:08;;;;;;;12.30;4.73;;;;;;;-11.62;57.61;101421.47;4898003;29;20124;-76
2021/12/10 00:32:39;;;;;;;9.30;4.43;;;;;;;-11.70;57.32;101433.25;4899589;29;20060;-75
2021/12/10 00:35:11;;;;;;;10.88;4.45;;;;;;;-11.79;57.31;101420.59;4897745;29;20108;-76
2021/12/10 00:37:37;;;;;;;12.23;4.43;;;;;;;-11.74;56.83;101423.59;4897547;29;20562;-75
2021/12/10 00:40:06;;;;;;;11.33;4.77;;;;;;;-11.67;58.00;101428.53;4897834;29;20040;-78
2021/12/10 00:42:34;;;;;;;10.93;4.03;;;;;;;-11.80;57.32;101403.75;4898926;29;20040;-76
2021/12/10 00:45:04;;;;;;;11.67;4.23;;;;;;;-11.78;57.34;101419.88;4899316;29;20048;-73
2021/12/10 00:47:30;;;;;;;11.57;4.30;;;;;;;-11.93;57.19;101431.69;4897418;29;20071;-75
2021/12/10 00:49:56;;;;;;;10.50;4.73;;;;;;;-12.04;57.61;101404.59;4898348;29;20131;-75
2021/12/10 00:52:23;;;;;;;11.47;4.53;;;;;;;-11.94;57.38;101416.47;4902527;29;20045;-77
2021/12/10 00:54:50;;;;;;;11.67;4.00;;;;;;;-12.04;57.11;101423.03;4904156;29;20546;-75
2021/12/10 00:57:17;;;;;;;13.33;4.37;;;;;;;-12.01;57.64;101419.94;4899707;29;20054;-76
2021/12/10 00:59:48;;;;;;;9.70;4.07;;;;;;;-12.31;57.47;101374.16;4881932;29;20051;-76
2021/12/10 01:02:17;;;;;;;12.32;4.35;;;;;;;-11.92;57.78;101433.47;4900502;29;20078;-76
2021/12/10 01:04:46;;;;;;;8.70;4.00;;;;;;;-11.93;57.68;101435.81;4897045;29;20060;-76
2021/12/10 01:07:17;;;;;;;7.47;3.53;;;;;;;-12.05;57.05;101441.34;4898649;29;20044;-78
2021/12/10 01:09:46;;;;;;;10.67;4.37;;;;;;;-12.22;57.13;101437.00;4897973;29;20036;-75
2021/12/10 01:12:18;;;;;;;8.50;3.97;;;;;;;-12.29;57.47;101427.03;4900248;29;20076;-79
2021/12/10 01:15:08;;;;;;;7.03;3.85;;;;;;;-12.25;57.74;101449.25;4898132;29;20044;-78
2021/12/10 01:26:21;;;;;;;10.43;4.33;;;;;;;-12.17;57.89;101452.56;4907042;29;20065;-75
2021/12/10 01:28:52;;;;;;;11.43;4.60;;;;;;;-12.23;57.68;101445.25;4902934;29;20045;-76
2021/12/10 01:31:18;;;;;;;7.38;3.97;;;;;;;-12.16;57.42;101456.88;4898275;29;20411;-76
2021/12/10 01:33:45;;;;;;;12.87;5.93;;;;;;;-12.11;57.47;101460.75;4897137;29;20047;-77
2021/12/10 01:36:12;;;;;;;16.30;6.63;;;;;;;-12.50;57.38;101403.00;4881180;29;20033;-77
2021/12/10 01:38:40;;;;;;;13.53;4.57;;;;;;;-12.16;57.23;101460.25;4897396;29;20119;-77
2021/12/10 01:41:12;;;;;;;9.53;4.63;;;;;;;-12.08;57.22;101457.69;4880545;29;20040;-76
2021/12/10 01:43:40;;;;;;;11.23;4.47;;;;;;;-12.07;57.13;101467.00;4897853;29;20048;-77
2021/12/10 01:46:12;;;;;;;11.87;4.37;;;;;;;-12.21;57.13;101441.28;4898144;29;20040;-79
2021/12/10 01:48:45;;;;;;;10.77;4.70;;;;;;;-12.11;57.06;101461.66;4896434;29;20573;-77
2021/12/10 01:51:16;;;;;;;9.60;4.30;;;;;;;-12.12;57.01;101454.84;4896455;29;20044;-74
2021/12/10 01:53:44;;;;;;;7.60;3.72;;;;;;;-12.22;57.12;101448.66;4896592;29;20041;-77
2021/12/10 01:56:16;;;;;;;9.03;4.43;;;;;;;-12.14;57.29;101473.00;4896595;29;20079;-76
2021/12/10 01:58:43;;;;;;;11.80;4.30;;;;;;;-12.14;57.41;101471.38;4896251;29;20045;-76
2021/12/10 02:01:14;;;;;;;10.97;4.33;;;;;;;-12.18;56.98;101471.75;4899488;29;20193;-77
2021/12/10 02:03:41;;;;;;;12.43;4.43;;;;;;;-12.34;57.27;101455.75;4897805;29;20100;-77
2021/12/10 02:06:08;;;;;;;11.23;4.23;;;;;;;-12.23;56.88;101472.88;4896387;29;20052;-76
2021/12/10 02:08:36;;;;;;;7.73;3.80;;;;;;;-12.20;57.40;101477.34;4897240;29;20597;-77
2021/12/10 02:11:03;;;;;;;12.47;4.63;;;;;;;-12.24;56.92;101465.19;4896409;29;20051;-76
2021/12/10 02:13:29;;;;;;;12.70;4.97;;;;;;;-12.22;56.89;101468.75;4880413;29;20396;-76
2021/12/10 02:15:55;;;;;;;10.03;4.23;;;;;;;-12.28;57.54;101461.44;4896369;29;20043;-76
2021/12/10 02:18:21;;;;;;;8.93;4.10;;;;;;;-12.17;57.03;101475.16;4880861;29;20124;-75
2021/12/10 02:20:50;;;;;;;9.33;4.00;;;;;;;-12.11;57.21;101475.81;4896061;29;20080;-77
2021/12/10 02:23:16;;;;;;;11.90;4.57;;;;;;;-12.14;57.35;101473.88;4880714;29;20052;-79
2021/12/10 02:25:42;;;;;;;9.77;4.73;;;;;;;-12.11;57.49;101474.22;4896031;29;20400;-77
2021/12/10 02:28:10;;;;;;;12.27;4.73;;;;;;;-12.20;57.33;101455.63;4864681;29;20491;-79
2021/12/10 02:30:39;;;;;;;15.27;4.70;;;;;;;-12.24;57.50;101455.13;4895700;29;20075;-78
2021/12/10 02:33:06;;;;;;;14.03;4.70;;;;;;;-12.12;57.09;101474.94;4880744;29;20299;-78
2021/12/10 02:35:33;;;;;;;30.30;7.20;;;;;;;-12.09;57.64;101473.50;4896310;29;20135;-78
2021/12/10 02:37:59;;;;;;;18.73;6.70;;;;;;;-12.17;56.97;101460.97;4896948;29;20052;-76
2021/12/10 02:40:27;;;;;;;13.03;5.17;;;;;;;-12.07;57.41;101467.00;4879959;29;20074;-77
2021/12/10 02:42:55;;;;;;;12.23;4.70;;;;;;;-12.14;57.44;101450.41;4880230;29;20044;-78
2021/12/10 02:45:23;;;;;;;12.87;5.00;;;;;;;-12.17;57.36;101450.94;4895705;29;20044;-77
2021/12/10 02:47:49;;;;;;;13.50;4.90;;;;;;;-12.35;57.03;101431.38;4896652;29;20267;-78
2021/12/10 02:50:18;;;;;;;11.93;5.33;;;;;;;-12.19;57.03;101466.56;4895702;29;20059;-76
2021/12/10 02:52:44;;;;;;;11.57;4.63;;;;;;;-12.24;56.98;101458.53;4895626;29;20136;-76
2021/12/10 02:55:13;;;;;;;10.23;5.03;;;;;;;-12.26;57.25;101460.00;4896014;29;20044;-75
2021/12/10 02:57:39;;;;;;;11.80;4.70;;;;;;;-12.31;56.95;101456.97;4898652;29;20127;-76
2021/12/10 03:00:11;;;;;;;12.10;5.13;;;;;;;-12.43;56.99;101464.06;4895992;29;20120;-78
2021/12/10 03:02:37;;;;;;;14.05;5.00;;;;;;;-12.61;56.82;101439.47;4897252;29;20048;-76
2021/12/10 03:05:23;;;;;;;12.17;5.37;;;;;;;-12.46;57.36;101466.22;4898294;29;20052;-77
2021/12/10 03:07:56;;;;;;;10.83;4.80;;;;;;;-12.68;57.10;101426.97;4877591;29;20048;-78
2021/12/10 03:10:31;;;;;;;11.20;6.40;;;;;;;-12.49;57.37;101475.03;4896020;29;20593;-75
2021/12/10 03:12:57;;;;;;;12.87;5.03;;;;;;;-12.59;57.17;101471.53;4895662;29;20088;-78
2021/12/10 03:15:26;;;;;;;12.87;4.83;;;;;;;-12.58;56.71;101485.88;4897605;29;20044;-75
2021/12/10 03:17:53;;;;;;;15.70;5.77;;;;;;;-12.61;56.97;101479.59;4896682;29;20533;-79
2021/12/10 03:20:23;;;;;;;12.97;5.23;;;;;;;-13.13;56.79;101405.44;4899133;29;20051;-77
2021/12/10 03:22:49;;;;;;;16.80;5.80;;;;;;;-12.70;56.70;101488.63;4867928;29;20467;-78
2021/12/10 03:25:16;;;;;;;16.33;5.53;;;;;;;-12.91;55.82;101468.84;4896401;29;20040;-77
2021/12/10 03:27:43;;;;;;;12.87;5.53;;;;;;;-12.91;56.41;101488.03;4898248;29;20051;-77
2021/12/10 03:30:12;;;;;;;13.20;5.13;;;;;;;-12.96;56.84;101481.59;4880802;29;20048;-77
2021/12/10 03:32:40;;;;;;;12.13;4.77;;;;;;;-12.89;56.42;101496.59;4886902;29;20193;-76
2021/12/10 03:35:13;;;;;;;10.33;4.67;;;;;;;-12.94;56.65;101492.69;4908177;29;20044;-77
2021/12/10 03:37:43;;;;;;;10.33;4.90;;;;;;;-13.06;56.68;101462.13;4903429;29;20422;-76
2021/12/10 03:40:12;;;;;;;9.67;4.90;;;;;;;-12.82;56.86;101494.06;4895839;29;20043;-74
2021/12/10 03:42:53;;;;;;;14.97;5.93;;;;;;;-13.02;56.51;101476.81;4895405;29;20044;-77
2021/12/10 03:45:28;;;;;;;11.60;4.93;;;;;;;-12.84;57.01;101500.50;4878816;29;20064;-79
2021/12/10 03:47:53;;;;;;;12.38;5.35;;;;;;;-12.81;56.75;101489.94;4895003;29;20057;-74
2021/12/10 03:50:59;;;;;;;14.07;4.60;;;;;;;-12.84;56.22;101507.16;4879458;29;20059;-79
2021/12/10 03:53:28;;;;;;;12.57;5.17;;;;;;;-12.98;56.59;101491.44;4878884;29;20048;-74
2021/12/10 03:56:15;;;;;;;14.27;5.80;;;;;;;-13.24;56.44;101458.44;4894343;29;20049;-78
2021/12/10 03:58:43;;;;;;;13.73;4.97;;;;;;;-12.91;56.72;101516.50;4879194;29;20048;-78
2021/12/10 04:01:12;;;;;;;12.40;4.87;;;;;;;-12.88;56.23;101523.44;4895016;29;20096;-76
2021/12/10 04:03:38;;;;;;;14.63;5.97;;;;;;;-12.87;56.70;101517.72;4898860;29;20045;-76
2021/12/10 04:06:04;;;;;;;15.37;5.17;;;;;;;-13.03;56.38;101490.06;4901207;29;20044;-79
2021/12/10 04:08:31;;;;;;;11.40;5.10;;;;;;;-13.08;56.56;101483.63;4900606;29;20049;-76
2021/12/10 04:10:58;;;;;;;18.90;6.07;;;;;;;-13.10;56.46;101480.06;4902832;29;20064;-77
2021/12/10 04:13:24;;;;;;;9.57;4.73;;;;;;;-13.03;56.70;101498.47;4887351;29;20130;-77
2021/12/10 04:15:49;;;;;;;14.60;5.93;;;;;;;-13.03;57.08;101488.44;4901268;29;20051;-78
2021/12/10 04:18:16;;;;;;;14.90;5.57;;;;;;;-13.04;56.45;101489.16;4885496;29;20136;-78
2021/12/10 04:20:43;;;;;;;13.60;5.47;;;;;;;-12.93;56.92;101509.53;4885514;29;20040;-76
2021/12/10 04:23:13;;;;;;;15.13;5.37;;;;;;;-12.84;56.63;101517.19;4900997;29;20115;-75
2021/12/10 04:25:41;;;;;;;20.03;5.90;;;;;;;-12.93;56.32;101517.06;4900969;29;20068;-75
2021/12/10 04:28:10;;;;;;;14.40;5.60;;;;;;;-13.08;56.46;101493.66;4869543;29;20092;-76
2021/12/10 04:30:40;;;;;;;14.47;5.77;;;;;;;-12.90;56.89;101519.88;4904880;29;20100;-76
2021/12/10 04:33:07;;;;;;;16.77;5.77;;;;;;;-12.93;56.81;101509.53;4900530;29;20533;-77
2021/12/10 04:35:34;;;;;;;18.27;6.27;;;;;;;-13.15;56.49;101472.03;4901035;29;20041;-77
2021/12/10 04:37:59;;;;;;;16.50;5.97;;;;;;;-13.05;56.54;101499.03;4885918;29;20537;-77
2021/12/10 04:40:26;;;;;;;17.27;6.37;;;;;;;-13.01;56.91;101513.66;4902704;29;20132;-76
2021/12/10 04:42:53;;;;;;;15.67;5.83;;;;;;;-13.10;57.13;101498.47;4903136;29;20466;-78
2021/12/10 04:45:19;;;;;;;17.57;6.43;;;;;;;-12.94;56.68;101533.69;4885700;29;20038;-76
2021/12/10 04:47:48;;;;;;;14.77;6.00;;;;;;;-13.01;56.80;101536.22;4902903;29;20506;-76
2021/12/10 04:50:17;;;;;;;13.77;6.80;;;;;;;-12.85;56.72;101541.34;4902471;29;20041;-77
2021/12/10 04:52:44;;;;;;;16.97;5.63;;;;;;;-12.83;56.97;101539.91;4900627;29;20140;-76
2021/12/10 04:55:13;;;;;;;15.97;6.53;;;;;;;-12.81;56.65;101538.47;4901604;29;20067;-78
2021/12/10 04:57:41;;;;;;;15.70;6.77;;;;;;;-12.82;56.65;101534.19;4900089;29;20036;-80
2021/12/10 05:00:11;;;;;;;17.20;6.67;;;;;;;-13.15;56.35;101547.22;4901208;29;20044;-75
2021/12/10 05:02:38;;;;;;;14.60;6.67;;;;;;;-13.38;56.54;101527.97;4901267;29;20562;-78
2021/12/10 05:05:06;;;;;;;16.47;7.10;;;;;;;-13.19;56.81;101537.56;4900884;29;20048;-76
2021/12/10 05:07:37;;;;;;;14.57;5.90;;;;;;;-13.53;55.08;101551.25;4901707;29;20048;-78
2021/12/10 05:10:18;;;;;;;15.67;6.47;;;;;;;-13.57;56.29;101566.69;4902639;29;20478;-79
2021/12/10 05:12:44;;;;;;;15.80;6.40;;;;;;;-13.71;56.99;101530.03;4900424;29;20056;-76
2021/12/10 05:15:14;;;;;;;16.03;7.60;;;;;;;-13.41;57.47;101564.31;4899308;29;20079;-79
2021/12/10 05:17:40;;;;;;;17.33;7.03;;;;;;;-13.28;57.24;101564.97;4897458;29;20119;-77
2021/12/10 05:20:12;;;;;;;13.87;6.83;;;;;;;-13.31;57.18;101534.56;4897569;29;20051;-77
2021/12/10 05:22:44;;;;;;;19.37;6.37;;;;;;;-13.07;57.06;101559.00;4881665;29;20096;-76
2021/12/10 05:25:10;;;;;;;21.13;7.77;;;;;;;-13.40;56.36;101519.38;4899263;29;20044;-77
2021/12/10 05:27:37;;;;;;;23.13;9.47;;;;;;;-13.35;57.51;101518.25;4881660;29;20528;-79
2021/12/10 05:30:06;;;;;;;20.33;8.77;;;;;;;-13.41;57.43;101504.19;4898998;29;20075;-76
2021/12/10 05:32:32;;;;;;;24.33;9.03;;;;;;;-13.22;57.01;101530.56;4898030;29;20049;-79
2021/12/10 05:34:58;;;;;;;27.87;9.07;;;;;;;-13.13;56.95;101540.78;4897841;29;20077;-77
2021/12/10 05:37:24;;;;;;;29.67;9.10;;;;;;;-13.10;57.16;101536.06;4896492;29;20054;-76
2021/12/10 05:39:49;;;;;;;20.77;8.73;;;;;;;-13.00;56.82;101554.69;4896411;29;20050;-78
2021/12/10 05:42:15;;;;;;;21.13;8.90;;;;;;;-13.05;57.01;101541.63;4899196;29;20041;-76
2021/12/10 05:44:43;;;;;;;24.23;8.47;;;;;;;-12.85;56.63;101566.44;4897886;29;20036;-77
2021/12/10 05:47:08;;;;;;;25.77;9.93;;;;;;;-12.82;56.90;101569.28;4883427;29;20048;-77
2021/12/10 05:49:35;;;;;;;29.77;9.73;;;;;;;-12.96;56.65;101550.19;4866432;29;20471;-76
2021/12/10 05:52:02;;;;;;;35.27;8.97;;;;;;;-12.92;56.55;101586.53;4900869;29;20507;-75
2021/12/10 05:54:32;;;;;;;23.03;10.00;;;;;;;-13.02;56.57;101574.56;4901639;29;20036;-76
2021/12/10 05:56:57;;;;;;;24.10;8.27;;;;;;;-12.90;56.36;101590.09;4899192;29;20037;-76
2021/12/10 05:59:23;;;;;;;31.00;8.67;;;;;;;-12.93;56.90;101550.53;4899893;29;20108;-76
2021/12/10 06:01:49;;;;;;;20.37;7.47;;;;;;;-12.48;56.40;101580.59;4884509;29;20064;-75
2021/12/10 06:04:22;;;;;;;19.07;7.83;;;;;;;-12.03;56.27;101559.53;4882730;29;20048;-76
2021/12/10 06:06:48;;;;;;;19.37;7.63;;;;;;;-11.25;56.43;101558.59;4898601;29;20032;-75
2021/12/10 06:09:14;;;;;;;15.73;8.13;;;;;;;-10.27;56.35;101581.25;4897305;29;20477;-76
2021/12/10 06:11:40;;;;;;;21.77;8.37;;;;;;;-9.47;56.13;101543.97;4881886;29;20051;-75
2021/12/10 06:14:07;;;;;;;21.93;8.63;;;;;;;-8.54;55.85;101578.19;4882945;29;20076;-77
2021/12/10 06:16:34;;;;;;;21.80;8.73;;;;;;;-7.98;54.93;101539.56;4898705;29;20131;-79
2021/12/10 06:19:02;;;;;;;19.37;8.83;;;;;;;-7.27;54.65;101534.28;4901037;29;20536;-76
2021/12/10 06:21:28;;;;;;;24.77;9.20;;;;;;;-6.38;53.55;101558.13;4902128;29;20054;-76
2021/12/10 06:23:54;;;;;;;17.13;8.07;;;;;;;-5.66;53.82;101557.44;4870812;29;20050;-79
2021/12/10 06:26:22;;;;;;;18.00;7.88;;;;;;;-4.74;52.82;101568.38;4901476;29;20044;-78
2021/12/10 06:28:51;;;;;;;21.60;9.15;;;;;;;-4.23;52.29;101525.78;4883978;29;20041;-79
2021/12/10 06:31:20;;;;;;;31.10;13.82;;;;;;;-4.17;50.86;101464.34;4902117;29;20048;-80
2021/12/10 06:33:52;;;;;;;37.03;14.73;;;;;;;-3.37;50.67;101546.75;4884504;29;20541;-81
2021/12/10 06:36:20;;;;;;;34.22;13.48;;;;;;;-2.94;48.51;101560.91;4898460;29;20044;-79
2021/12/10 06:38:48;;;;;;;27.73;12.02;;;;;;;-2.62;49.47;101557.31;4899094;29;20172;-76
2021/12/10 06:41:15;;;;;;;29.55;10.70;;;;;;;-2.12;49.03;101529.44;4884954;29;20044;-77
2021/12/10 06:44:07;;;;;;;23.98;10.40;;;;;;;-1.27;47.63;101541.09;4871389;29;20075;-78
2021/12/10 06:46:34;;;;;;;21.52;10.35;;;;;;;-0.56;47.22;101555.97;4889993;29;20119;-77
2021/12/10 06:49:14;;;;;;;20.25;9.00;;;;;;;-0.07;45.74;101519.78;4881925;29;20055;-76
2021/12/10 06:51:42;;;;;;;17.20;7.88;;;;;;;0.36;44.07;101518.97;4896569;29;20067;-79
2021/12/10 06:54:08;;;;;;;17.17;8.63;;;;;;;0.84;43.53;101537.16;4902841;29;20047;-77
2021/12/10 06:56:36;;;;;;;20.60;8.48;;;;;;;0.77;41.75;101546.97;4897624;29;20054;-76
2021/12/10 06:59:26;;;;;;;18.85;8.63;;;;;;;0.94;42.60;101546.25;4900436;29;20063;-80
2021/12/10 07:02:02;;;;;;;20.92;8.82;;;;;;;1.15;42.24;101536.38;4863219;29;20104;-80
2021/12/10 07:04:35;;;;;;;16.90;7.95;;;;;;;1.63;40.72;101559.56;4895383;29;20041;-80
2021/12/10 07:07:02;;;;;;;15.60;7.97;;;;;;;2.27;41.23;101509.06;4896244;29;20067;-77
2021/12/10 07:09:54;;;;;;;;;;;;;;;;;;;;;
2021/12/10 07:16:25;;;;;;;18.63;9.65;;;;;;;4.12;37.47;101405.41;4884270;29;20518;-82
2021/12/10 07:19:30;;;;;;;;;;;;;;;;;;;;;
2021/12/10 07:22:57;;;;;;;22.20;11.02;;;;;;;5.24;35.89;101343.72;4893637;29;20040;-78
2021/12/10 07:25:56;;;;;;;25.33;15.00;;;;;;;7.00;34.54;101445.41;4885793;29;20060;-77
2021/12/10 07:29:13;;;;;;;24.42;14.68;;;;;;;6.88;33.29;101348.44;4883386;29;20058;-79
2021/12/10 07:38:26;;;;;;;20.42;10.82;;;;;;;8.30;31.32;101355.81;4828219;29;20248;-78
2021/12/10 07:41:31;;;;;;;22.38;11.73;;;;;;;8.06;30.22;101533.25;4820485;29;20496;-78
2021/12/10 07:44:39;;;;;;;20.38;11.73;;;;;;;8.46;30.61;101439.25;4887005;29;20048;-78
2021/12/10 07:50:34;;;;;;;18.30;10.70;;;;;;;10.29;28.69;101511.84;4873639;29;20052;-77
2021/12/10 07:53:30;;;;;;;15.60;9.10;;;;;;;10.51;27.71;101514.88;4884028;29;20104;-78
2021/12/10 07:56:16;;;;;;;;;;;;;;;;;;;;;
2021/12/10 07:59:23;;;;;;;15.35;9.68;;;;;;;10.92;27.39;101508.66;4882047;29;20048;-77
2021/12/10 08:02:06;;;;;;;23.85;13.18;;;;;;;8.43;23.70;101448.72;4878523;29;20128;-78
2021/12/10 08:04:39;;;;;;;26.30;15.00;;;;;;;6.61;28.19;101550.22;4897846;29;20084;-76
2021/12/10 08:07:06;;;;;;;40.38;22.67;;;;;;;7.05;28.60;101421.44;4882683;29;20068;-74
2021/12/10 08:09:37;;;;;;;42.80;21.95;;;;;;;8.40;27.02;101530.72;4884067;29;20104;-76
2021/12/10 08:12:13;;;;;;;29.85;17.52;;;;;;;8.13;27.08;101496.31;4867895;29;20048;-78
2021/12/10 08:14:45;;;;;;;24.48;13.20;;;;;;;7.16;24.88;101530.53;4903314;29;20041;-78
2021/12/10 08:17:12;;;;;;;25.75;14.13;;;;;;;6.24;26.34;101430.84;4883367;29;20042;-76
2021/12/10 08:19:38;;;;;;;25.30;13.05;;;;;;;7.05;25.49;101517.22;4898703;29;20045;-78
2021/12/10 08:22:06;;;;;;;22.73;12.43;;;;;;;6.93;27.19;101497.00;4883653;29;20056;-77
2021/12/10 08:24:41;;;;;;;25.02;12.38;;;;;;;7.38;26.76;101516.53;4867456;29;20075;-78
2021/12/10 08:27:09;;;;;;;25.02;13.32;;;;;;;8.04;26.61;101519.41;4899051;29;20443;-75
2021/12/10 08:29:36;;;;;;;25.88;13.05;;;;;;;7.21;26.79;101393.44;4900087;29;20050;-79
2021/12/10 08:32:05;;;;;;;22.73;12.65;;;;;;;7.05;26.51;101480.09;4867974;29;20064;-78
2021/12/10 08:34:32;;;;;;;23.58;11.63;;;;;;;7.04;26.51;101510.28;4883406;29;20059;-75
2021/12/10 08:36:58;;;;;;;18.73;11.98;;;;;;;7.37;25.25;101519.09;4899930;29;20040;-78
2021/12/10 08:39:24;;;;;;;23.50;12.55;;;;;;;6.11;25.33;101542.38;4898450;29;20502;-78
2021/12/10 08:41:55;;;;;;;22.52;12.25;;;;;;;5.99;25.80;101535.91;4901597;29;20051;-80
2021/12/10 08:44:22;;;;;;;21.40;12.02;;;;;;;6.44;27.91;101514.28;4883316;29;20502;-80
2021/12/10 08:46:49;;;;;;;19.63;10.93;;;;;;;7.32;26.30;101525.84;4884211;29;20048;-77
2021/12/10 08:49:16;;;;;;;19.75;11.80;;;;;;;6.20;25.62;101493.63;4897075;29;20059;-78
2021/12/10 08:51:47;;;;;;;27.63;14.57;;;;;;;5.84;25.89;101507.78;4900337;29;20506;-75
2021/12/10 08:54:15;;;;;;;;;;;;;;;6.57;25.57;101528.53;4886729;29;20047;-78
2021/12/10 08:56:41;;;;;;;25.10;13.90;;;;;;;6.78;27.40;101528.41;4901788;29;19926;-76
2021/12/10 08:59:09;;;;;;;25.33;13.15;;;;;;;7.57;27.01;101516.25;4900437;29;20470;-79
2021/12/10 09:01:42;;;;;;;24.20;13.27;;;;;;;6.79;26.54;101500.81;4899573;29;20073;-77
2021/12/10 09:04:11;;;;;;;30.13;12.52;;;;;;;7.76;26.79;101534.13;4899192;29;20080;-76
2021/12/10 09:06:39;;;;;;;22.08;11.63;;;;;;;6.61;26.26;101504.53;4901267;29;20048;-77
2021/12/10 09:09:08;;;;;;;23.60;11.95;;;;;;;6.41;25.82;101527.09;4901238;29;20045;-75
2021/12/10 09:11:35;;;;;;;24.13;11.02;;;;;;;6.53;25.34;101531.81;4901548;29;20520;-77
2021/12/10 09:14:01;;;;;;;21.30;10.95;;;;;;;6.10;24.99;101531.16;4902424;29;20139;-79
2021/12/10 09:16:30;;;;;;;23.13;12.32;;;;;;;5.75;25.34;101497.09;4884918;29;20047;-77
2021/12/10 09:19:02;;;;;;;24.02;12.15;;;;;;;5.88;26.07;101530.34;4883275;29;20081;-76
2021/12/10 09:21:29;;;;;;;24.65;12.65;;;;;;;5.63;27.02;101531.06;4885534;29;20119;-78
2021/12/10 09:24:00;;;;;;;22.63;12.38;;;;;;;5.25;27.99;101527.84;4900563;29;20104;-77
2021/12/10 09:26:27;;;;;;;21.33;11.57;;;;;;;5.93;26.92;101525.31;4902530;29;20068;-78
2021/12/10 09:28:56;;;;;;;20.77;11.18;;;;;;;5.80;27.17;101517.94;4900731;29;20040;-78
2021/12/10 09:31:24;;;;;;;20.50;11.25;;;;;;;4.69;25.78;101515.25;4885259;29;20178;-75
2021/12/10 09:33:58;;;;;;;20.33;10.73;;;;;;;4.20;27.54;101535.50;4903138;29;20052;-76
2021/12/10 09:36:28;;;;;;;18.20;9.82;;;;;;;3.50;27.63;101533.97;4903094;29;20533;-76
2021/12/10 09:38:55;;;;;;;15.75;9.70;;;;;;;3.82;29.46;101536.31;4907424;29;20057;-78
2021/12/10 09:41:22;;;;;;;18.83;10.27;;;;;;;4.59;29.02;101529.44;4906925;29;20037;-78
2021/12/10 09:43:48;;;;;;;24.20;10.93;;;;;;;4.27;27.92;101515.16;4893369;29;20233;-75
2021/12/10 09:46:14;;;;;;;16.52;8.93;;;;;;;3.90;26.33;101522.09;4911843;29;20044;-76
2021/12/10 09:48:42;;;;;;;18.55;10.27;;;;;;;2.38;28.08;101545.59;4912718;29;20046;-76
2021/12/10 09:51:20;;;;;;;21.83;9.88;;;;;;;2.29;29.07;101479.19;4913376;29;20028;-78
2021/12/10 09:53:49;;;;;;;17.02;9.77;;;;;;;2.56;29.08;101548.22;4911656;29;20056;-75
2021/12/10 09:56:18;;;;;;;20.60;10.73;;;;;;;2.01;29.38;101541.94;4910752;29;20045;-76
2021/12/10 09:58:44;;;;;;;18.38;9.20;;;;;;;2.14;29.85;101506.63;4914336;29;20060;-77
2021/12/10 10:01:20;;;;;;;16.63;8.80;;;;;;;2.14;29.93;101515.22;4902575;29;20108;-79
2021/12/10 10:03:50;;;;;;;16.75;8.95;;;;;;;1.54;30.27;101510.31;4902742;29;20055;-78
2021/12/10 10:06:17;;;;;;;18.52;9.18;;;;;;;0.62;30.05;101526.44;4887296;29;20540;-77
2021/12/10 10:08:49;;;;;;;16.67;8.68;;;;;;;-0.35;30.46;101559.03;4902785;29;20040;-78
2021/12/10 10:11:28;;;;;;;21.02;9.52;;;;;;;-1.59;30.17;101557.69;4899965;29;20055;-75
2021/12/10 10:13:56;;;;;;;17.48;9.73;;;;;;;-3.39;30.88;101524.50;4887195;29;20044;-78
2021/12/10 10:16:24;;;;;;;21.63;10.13;;;;;;;-4.00;32.13;101564.84;4899046;29;20048;-79
2021/12/10 10:18:54;;;;;;;18.90;10.50;;;;;;;-4.70;34.16;101519.59;4900468;29;20041;-78
2021/12/10 10:21:34;;;;;;;24.10;10.18;;;;;;;-4.94;34.82;101520.16;4901225;29;20036;-78
2021/12/10 10:24:03;;;;;;;21.45;11.25;;;;;;;-5.16;34.58;101576.78;4899317;29;20045;-78
2021/12/10 10:26:39;;;;;;;21.15;11.38;;;;;;;-5.56;34.55;101598.84;4899047;29;20561;-80
2021/12/10 10:29:13;;;;;;;22.55;11.32;;;;;;;-6.22;36.25;101551.88;4900550;29;20053;-77
2021/12/10 10:31:46;;;;;;;24.23;11.65;;;;;;;-6.14;36.24;101581.31;4903758;29;20064;-80
2021/12/10 10:34:13;;;;;;;21.98;10.25;;;;;;;-6.46;36.79;101592.03;4899783;29;20048;-79
2021/12/10 10:37:17;;;;;;;21.40;10.43;;;;;;;-6.61;38.38;101556.09;4886087;29;20044;-79
2021/12/10 10:39:43;;;;;;;19.90;9.57;;;;;;;-6.02;38.07;101606.84;4869933;29;20062;-79
2021/12/10 10:42:15;;;;;;;22.25;9.55;;;;;;;-6.27;38.06;101568.31;4899900;29;20054;-81
2021/12/10 10:44:42;;;;;;;18.50;9.20;;;;;;;-6.06;38.48;101587.03;4897720;29;20148;-80
2021/12/10 10:47:09;;;;;;;18.92;8.30;;;;;;;-5.99;38.29;101611.25;4866749;29;20072;-82
2021/12/10 10:49:42;;;;;;;18.73;7.63;;;;;;;-6.06;38.12;101610.72;4897659;29;20459;-82
2021/12/10 10:52:33;;;;;;;13.07;7.05;;;;;;;-6.98;37.06;101594.25;4882827;29;20104;-81
2021/12/10 10:55:35;;;;;;;16.80;7.47;;;;;;;-7.47;37.62;101580.50;4899875;29;20085;-83
2021/12/10 10:58:04;;;;;;;19.45;9.05;;;;;;;-7.62;40.13;101627.16;4900322;29;20052;-81
2021/12/10 11:01:00;;;;;;;18.88;7.93;;;;;;;-7.79;39.77;101615.44;4866936;29;20048;-78
2021/12/10 11:03:38;;;;;;;20.27;9.30;;;;;;;-7.89;41.12;101614.59;4898118;29;20758;-79
2021/12/10 11:06:16;;;;;;;21.88;9.38;;;;;;;-7.65;41.33;101610.06;4899206;29;20100;-80
2021/12/10 11:08:50;;;;;;;17.45;7.93;;;;;;;-7.44;41.58;101610.28;4899127;29;20047;-81
2021/12/10 11:11:21;;;;;;;18.27;8.45;;;;;;;-7.53;41.63;101614.47;4898134;29;20103;-79
2021/12/10 11:14:36;;;;;;;21.10;8.98;;;;;;;-7.72;40.92;101559.66;4881974;29;20052;-79
2021/12/10 11:17:31;;;;;;;18.10;7.60;;;;;;;-7.66;41.57;101540.00;4898468;29;20048;-81
2021/12/10 11:20:13;;;;;;;16.73;8.00;;;;;;;-7.05;41.66;101617.22;4898100;29;20036;-79
2021/12/10 11:22:52;;;;;;;14.88;7.68;;;;;;;-7.08;41.06;101611.88;4887936;29;20049;-78
2021/12/10 11:25:35;;;;;;;19.58;8.25;;;;;;;-7.47;41.70;101572.94;4884557;29;20052;-79
2021/12/10 11:28:06;;;;;;;20.85;8.40;;;;;;;-7.24;41.68;101601.09;4897776;29;20093;-80
2021/12/10 11:30:33;;;;;;;21.57;10.27;;;;;;;-7.22;41.26;101612.25;4884237;29;20044;-78
2021/12/10 11:33:24;;;;;;;21.38;9.98;;;;;;;-7.22;41.78;101620.72;4900774;29;20072;-81
2021/12/10 11:35:57;;;;;;;23.85;9.73;;;;;;;-7.51;41.53;101567.44;4885921;29;20100;-77
2021/12/10 11:38:31;;;;;;;29.60;10.60;;;;;;;-7.89;41.61;101515.13;4885457;29;20108;-78
2021/12/10 11:41:06;;;;;;;25.87;8.43;;;;;;;-7.99;41.28;101574.03;4899546;29;20066;-80
2021/12/10 11:43:45;;;;;;;22.20;9.83;;;;;;;-8.20;42.78;101599.06;4899878;29;20427;-80
2021/12/10 11:46:48;;;;;;;24.37;10.57;;;;;;;-7.90;42.87;101622.94;4898824;29;20530;-80
2021/12/10 11:49:21;;;;;;;17.63;9.17;;;;;;;-8.19;43.38;101595.78;4885333;29;20554;-82
2021/12/10 11:51:56;;;;;;;21.33;9.83;;;;;;;-8.19;43.08;101622.69;4899296;29;20195;-80
2021/12/10 11:54:41;;;;;;;21.63;10.07;;;;;;;-8.58;42.98;101620.66;4900152;29;20044;-81
2021/12/10 11:57:22;;;;;;;19.83;8.93;;;;;;;-8.63;43.72;101617.69;4903068;29;20414;-80
2021/12/10 12:00:18;;;;;;;27.63;11.33;;;;;;;-9.06;44.06;101573.13;4889831;29;20422;-79